Ana Sayfa
METAR-TAF:

METAR-TAF

Havaalanları :

Kuala Lumpur Uluslararası Havalimanı

Kuala Lumpur, Malezya

Enlem: 02-44N, Boylam: 101-42E, yükseklik: 21 m

Güncel hava durumu gözlemi

Rapor saat 06:30 UTC de 36 dakika önce yapıldı.
Rüzgar değişken yönden 5 kt
Sıcaklık 33°C
Nem 67%
Basınç 1007 hPa
Görüş mesafesi 10 km veya daha fazla
1800 ft yükseklikte parçalı bulutlu

METAR: WMKK 270630Z VRB05KT 9999 SCT018 33/26 Q1007 NOSIG

Saat: 15:06 (07:06 UTC)

Tahmin

Rapor saat 05:00 UTC de 2 saat ve 6 dakika önce yapıldı.
Ayın 27'si saat 06 UTC'den ayın 28'si saat 12 UTC'ye kadar geçerli Tahmin
Rüzgar değişken yönden 3 kt
Görüş mesafesi 10 km veya daha fazla
1800 ft yükseklikte az bulutlu

TAF: WMKK 270500Z 2706/2812 VRB03KT 9999 FEW018

4.000'den fazla havaalanı için hava durumu gözlemleri ve tahminleri (METAR ve TAF raporları).

Kullanılabilir istasyonlar harita üzerinde sarı ve kırmızı noktalarla gösterilir.

İstasyonun adını görmek için fareyi noktanın üzerinde gezdirin.

Sonrasında hava gözlem ve tahminlerini görmek için tıklayın.

Haritayı değiştirmek için: yaklaştırmak için siyah artı işaretli yeşil düğmeye ve uzaklaştırmak için de eksi işaretli düğmeye hızla tıklayın; bitişik haritalar için yeşil okları kullanın.


METAR-TAF: